createdAt,value
2022-10-22T00:00:02.706Z,85.30
2022-10-22T00:00:12.705Z,83.00
2022-10-22T00:00:23.569Z,85.60
2022-10-22T00:00:32.701Z,79.30
2022-10-22T00:00:42.871Z,80.90
2022-10-22T00:00:52.704Z,81.00
2022-10-22T00:01:03.583Z,82.30
2022-10-22T00:01:12.698Z,81.80
2022-10-22T00:01:22.692Z,83.30
2022-10-22T00:01:32.696Z,82.10
2022-10-22T00:01:42.689Z,79.70
2022-10-22T00:01:52.707Z,78.30
2022-10-22T00:02:02.751Z,82.60
2022-10-22T00:02:12.724Z,80.60
2022-10-22T00:02:22.766Z,79.20
2022-10-22T00:02:32.752Z,75.30
2022-10-22T00:02:42.719Z,80.30
2022-10-22T00:02:52.724Z,81.40
2022-10-22T00:03:02.800Z,82.30
2022-10-22T00:03:13.574Z,79.00
2022-10-22T00:03:22.785Z,75.90
2022-10-22T00:03:32.693Z,76.00
2022-10-22T00:03:42.845Z,82.60
2022-10-22T00:03:52.687Z,81.90
2022-10-22T00:04:02.721Z,82.50
2022-10-22T00:04:12.805Z,79.30
2022-10-22T00:04:22.750Z,83.10
2022-10-22T00:04:34.646Z,84.90
2022-10-22T00:04:42.688Z,84.90
2022-10-22T00:04:52.701Z,79.90
2022-10-22T00:05:02.721Z,82.90
2022-10-22T00:05:12.693Z,84.40
2022-10-22T00:05:22.696Z,85.30
2022-10-22T00:05:32.674Z,80.30
2022-10-22T00:05:42.665Z,81.80
2022-10-22T00:05:52.684Z,79.30
2022-10-22T00:06:02.671Z,75.50
2022-10-22T00:06:13.578Z,67.20
2022-10-22T00:06:22.668Z,70.80
2022-10-22T00:06:32.682Z,76.80
2022-10-22T00:06:43.573Z,84.00
2022-10-22T00:06:52.681Z,80.00
2022-10-22T00:07:02.662Z,78.00
2022-10-22T00:07:12.686Z,78.30
2022-10-22T00:07:22.695Z,87.60
2022-10-22T00:07:32.677Z,89.60
2022-10-22T00:07:43.087Z,89.30
2022-10-22T00:07:52.702Z,86.70
2022-10-22T00:08:02.686Z,89.10
2022-10-22T00:08:13.591Z,86.90
2022-10-22T00:08:23.170Z,83.20
2022-10-22T00:08:32.766Z,77.30
2022-10-22T00:08:42.755Z,71.80
2022-10-22T00:08:52.725Z,76.00
2022-10-22T00:09:02.713Z,77.40
2022-10-22T00:09:12.703Z,89.00
2022-10-22T00:09:22.661Z,89.40
2022-10-22T00:09:32.722Z,90.90
2022-10-22T00:09:42.674Z,81.30
2022-10-22T00:09:52.659Z,77.70
2022-10-22T00:10:02.665Z,75.20
2022-10-22T00:10:12.685Z,82.80
2022-10-22T00:10:22.735Z,81.60
2022-10-22T00:10:32.648Z,87.80
2022-10-22T00:10:42.661Z,84.80
2022-10-22T00:10:52.672Z,78.20
2022-10-22T00:11:05.611Z,76.00
2022-10-22T00:11:12.675Z,78.70
2022-10-22T00:11:22.658Z,86.70
2022-10-22T00:11:32.645Z,83.40
2022-10-22T00:11:42.642Z,86.40
2022-10-22T00:11:52.662Z,82.80
2022-10-22T00:12:02.653Z,85.10
2022-10-22T00:12:12.646Z,84.40
2022-10-22T00:12:23.666Z,86.90
2022-10-22T00:12:32.637Z,83.00
2022-10-22T00:12:42.650Z,77.00
2022-10-22T00:12:52.642Z,75.40
2022-10-22T00:13:03.578Z,76.30
2022-10-22T00:13:12.640Z,79.30
2022-10-22T00:13:22.637Z,81.30
2022-10-22T00:13:32.668Z,81.30
2022-10-22T00:13:42.734Z,75.50
2022-10-22T00:13:52.629Z,77.30
2022-10-22T00:14:02.674Z,78.60
2022-10-22T00:14:12.678Z,82.10
2022-10-22T00:14:22.676Z,77.60
2022-10-22T00:14:32.793Z,80.80
2022-10-22T00:14:42.837Z,79.80
2022-10-22T00:14:52.631Z,80.30
2022-10-22T00:15:02.634Z,70.60
2022-10-22T00:15:12.631Z,74.80
2022-10-22T00:15:22.643Z,74.80
2022-10-22T00:15:32.689Z,81.30
2022-10-22T00:15:42.630Z,77.30
2022-10-22T00:15:52.625Z,76.30
2022-10-22T00:16:02.635Z,81.10
2022-10-22T00:16:12.666Z,85.90
2022-10-22T00:16:23.733Z,82.30
2022-10-22T00:16:33.616Z,75.90
2022-10-22T00:16:42.782Z,78.70
2022-10-22T00:16:52.619Z,78.20
2022-10-22T00:17:02.639Z,83.00
2022-10-22T00:17:13.591Z,80.60
2022-10-22T00:17:23.579Z,86.20
2022-10-22T00:17:32.631Z,84.90
2022-10-22T00:17:42.874Z,87.20
2022-10-22T00:17:53.595Z,87.80
2022-10-22T00:18:02.615Z,89.80
2022-10-22T00:18:12.616Z,81.50
2022-10-22T00:18:23.582Z,77.00
2022-10-22T00:18:32.621Z,71.40
2022-10-22T00:18:42.751Z,75.90
2022-10-22T00:18:52.845Z,77.60
2022-10-22T00:19:02.866Z,76.30
2022-10-22T00:19:12.694Z,72.80
2022-10-22T00:19:22.627Z,75.40
2022-10-22T00:19:32.628Z,80.30
2022-10-22T00:19:42.653Z,83.20
2022-10-22T00:19:52.735Z,82.70
2022-10-22T00:20:02.631Z,83.30
2022-10-22T00:20:12.631Z,82.70
2022-10-22T00:20:22.632Z,84.70
2022-10-22T00:20:33.590Z,73.30
2022-10-22T00:20:43.640Z,74.70
2022-10-22T00:20:52.732Z,69.70
2022-10-22T00:21:02.603Z,81.10
2022-10-22T00:21:12.648Z,80.20
2022-10-22T00:21:22.640Z,83.70
2022-10-22T00:21:32.611Z,75.40
2022-10-22T00:21:42.613Z,76.10
2022-10-22T00:21:52.609Z,69.50
2022-10-22T00:22:03.600Z,73.10
2022-10-22T00:22:12.617Z,70.60
2022-10-22T00:22:22.774Z,77.80
2022-10-22T00:22:32.606Z,80.20
2022-10-22T00:22:43.673Z,81.70
2022-10-22T00:22:52.918Z,82.90
2022-10-22T00:23:02.612Z,82.30
2022-10-22T00:23:12.604Z,76.30
2022-10-22T00:23:22.598Z,73.60
2022-10-22T00:23:32.601Z,81.20
2022-10-22T00:23:42.615Z,86.10
2022-10-22T00:23:52.594Z,88.30
2022-10-22T00:24:03.629Z,82.50
2022-10-22T00:24:12.592Z,80.50
2022-10-22T00:24:22.653Z,82.20
2022-10-22T00:24:32.586Z,81.60
2022-10-22T00:24:43.584Z,88.60
2022-10-22T00:24:53.717Z,80.20
2022-10-22T00:25:02.765Z,79.30
2022-10-22T00:25:12.588Z,75.50
2022-10-22T00:25:22.590Z,76.00
2022-10-22T00:25:32.603Z,75.50
2022-10-22T00:25:42.594Z,74.30
2022-10-22T00:25:52.622Z,80.10
2022-10-22T00:26:02.603Z,78.90
2022-10-22T00:26:12.580Z,79.60
2022-10-22T00:26:22.603Z,78.70
2022-10-22T00:26:32.603Z,80.40
2022-10-22T00:26:42.581Z,77.60
2022-10-22T00:26:52.670Z,75.10
2022-10-22T00:27:02.801Z,76.80
2022-10-22T00:27:13.106Z,80.90
2022-10-22T00:27:22.589Z,82.80
2022-10-22T00:27:32.581Z,78.40
2022-10-22T00:27:42.901Z,76.30
2022-10-22T00:27:52.575Z,80.90
2022-10-22T00:28:03.196Z,84.80
2022-10-22T00:28:12.652Z,86.00
2022-10-22T00:28:22.617Z,83.80
2022-10-22T00:28:33.111Z,84.00
2022-10-22T00:28:42.569Z,80.30
2022-10-22T00:28:52.644Z,75.70
2022-10-22T00:29:02.674Z,76.70
2022-10-22T00:29:12.563Z,79.30
2022-10-22T00:29:22.611Z,88.70
2022-10-22T00:29:32.574Z,87.20
2022-10-22T00:29:42.596Z,89.20
2022-10-22T00:29:52.561Z,88.10
2022-10-22T00:30:02.573Z,82.80
2022-10-22T00:30:13.585Z,80.80
2022-10-22T00:30:22.563Z,71.20
2022-10-22T00:30:32.561Z,74.30
2022-10-22T00:30:42.570Z,68.60
2022-10-22T00:30:52.561Z,75.30
2022-10-22T00:31:02.663Z,77.50
2022-10-22T00:31:12.569Z,84.50
2022-10-22T00:31:22.813Z,77.90
2022-10-22T00:31:32.554Z,74.30
2022-10-22T00:31:42.633Z,78.20
2022-10-22T00:31:52.649Z,82.00
2022-10-22T00:32:02.679Z,81.30
2022-10-22T00:32:12.686Z,84.10
2022-10-22T00:32:22.562Z,86.20
2022-10-22T00:32:32.550Z,88.40
2022-10-22T00:32:42.930Z,76.60
2022-10-22T00:32:52.572Z,72.30
2022-10-22T00:33:03.099Z,71.10
2022-10-22T00:33:12.650Z,80.10
2022-10-22T00:33:22.758Z,85.70
2022-10-22T00:33:32.547Z,84.90
2022-10-22T00:33:42.563Z,79.10
2022-10-22T00:33:52.549Z,72.00
2022-10-22T00:34:02.721Z,73.10
2022-10-22T00:34:12.557Z,74.80
2022-10-22T00:34:22.559Z,75.00
2022-10-22T00:34:32.560Z,74.30
2022-10-22T00:34:42.557Z,67.50
2022-10-22T00:34:52.540Z,70.10
2022-10-22T00:35:02.551Z,74.30
2022-10-22T00:35:13.098Z,82.80
2022-10-22T00:35:23.661Z,82.00
2022-10-22T00:35:32.564Z,85.00
2022-10-22T00:35:42.562Z,80.50
2022-10-22T00:35:52.550Z,83.80
2022-10-22T00:36:02.660Z,78.40
2022-10-22T00:36:12.539Z,77.30
2022-10-22T00:36:22.545Z,72.90
2022-10-22T00:36:32.538Z,70.80
2022-10-22T00:36:42.571Z,68.60
2022-10-22T00:36:52.544Z,66.60
2022-10-22T00:37:02.580Z,68.60
2022-10-22T00:37:13.120Z,74.10
2022-10-22T00:37:22.760Z,74.30
2022-10-22T00:37:33.094Z,74.30
2022-10-22T00:37:42.550Z,70.40
2022-10-22T00:37:52.548Z,75.70
2022-10-22T00:38:02.546Z,74.40
2022-10-22T00:38:12.537Z,80.70
2022-10-22T00:38:22.545Z,81.70
2022-10-22T00:38:32.533Z,82.70
2022-10-22T00:38:42.551Z,81.40
2022-10-22T00:38:52.653Z,77.50
2022-10-22T00:39:02.525Z,78.60
2022-10-22T00:39:12.520Z,78.80
2022-10-22T00:39:22.611Z,81.50
2022-10-22T00:39:32.529Z,81.30
2022-10-22T00:39:42.534Z,79.70
2022-10-22T00:39:52.549Z,78.80
2022-10-22T00:40:02.538Z,81.00
2022-10-22T00:40:12.527Z,80.20
2022-10-22T00:40:22.543Z,75.60
2022-10-22T00:40:32.582Z,67.60
2022-10-22T00:40:42.527Z,64.10
2022-10-22T00:40:52.597Z,70.10
2022-10-22T00:41:12.525Z,80.00
2022-10-22T00:41:22.574Z,74.30
2022-10-22T00:41:32.610Z,71.00
2022-10-22T00:41:42.710Z,68.10
2022-10-22T00:41:52.509Z,72.40
2022-10-22T00:42:02.535Z,69.70
2022-10-22T00:42:12.543Z,74.30
2022-10-22T00:42:22.521Z,69.80
2022-10-22T00:42:33.122Z,77.20
2022-10-22T00:42:43.190Z,75.50
2022-10-22T00:42:52.509Z,81.40
2022-10-22T00:43:02.512Z,78.60
2022-10-22T00:43:12.506Z,77.70
2022-10-22T00:43:22.517Z,82.70
2022-10-22T00:43:33.115Z,83.60
2022-10-22T00:43:42.668Z,84.40
2022-10-22T00:43:52.517Z,73.50
2022-10-22T00:44:02.513Z,74.10
2022-10-22T00:44:12.514Z,75.60
2022-10-22T00:44:22.511Z,79.70
2022-10-22T00:44:32.516Z,76.90
2022-10-22T00:44:42.542Z,74.30
2022-10-22T00:44:52.514Z,72.40
2022-10-22T00:45:02.512Z,79.10
2022-10-22T00:45:12.515Z,83.90
2022-10-22T00:45:22.506Z,85.70
2022-10-22T00:45:33.090Z,78.80
2022-10-22T00:45:42.600Z,74.90
2022-10-22T00:45:52.496Z,76.60
2022-10-22T00:46:02.520Z,79.80
2022-10-22T00:46:12.490Z,81.50
2022-10-22T00:46:22.594Z,82.00
2022-10-22T00:46:32.528Z,78.20
2022-10-22T00:46:42.492Z,83.50
2022-10-22T00:46:52.496Z,84.70
2022-10-22T00:47:02.535Z,88.30
2022-10-22T00:47:12.513Z,85.00
2022-10-22T00:47:22.601Z,79.90
2022-10-22T00:47:32.537Z,82.70
2022-10-22T00:47:43.097Z,80.90
2022-10-22T00:47:52.514Z,87.10
2022-10-22T00:48:02.494Z,93.20
2022-10-22T00:48:12.504Z,94.90
2022-10-22T00:48:22.504Z,95.90
2022-10-22T00:48:32.488Z,84.60
2022-10-22T00:48:42.485Z,88.90
2022-10-22T00:48:52.601Z,86.20
2022-10-22T00:49:02.573Z,92.20
2022-10-22T00:49:12.498Z,93.10
2022-10-22T00:49:22.507Z,91.50
2022-10-22T00:49:32.479Z,86.50
2022-10-22T00:49:43.096Z,82.80
2022-10-22T00:49:52.792Z,84.30
2022-10-22T00:50:12.492Z,89.70
2022-10-22T00:50:22.521Z,90.00
2022-10-22T00:50:32.482Z,91.40
2022-10-22T00:50:42.491Z,94.00
2022-10-22T00:50:52.527Z,93.60
2022-10-22T00:51:02.488Z,92.40
2022-10-22T00:51:12.484Z,92.50
2022-10-22T00:51:22.483Z,93.10
2022-10-22T00:51:32.562Z,95.70
2022-10-22T00:51:43.100Z,89.50
2022-10-22T00:51:53.135Z,93.90
2022-10-22T00:52:02.467Z,89.50
2022-10-22T00:52:12.491Z,91.80
2022-10-22T00:52:22.464Z,88.00
2022-10-22T00:52:32.468Z,88.80
2022-10-22T00:52:42.699Z,90.30
2022-10-22T00:52:52.467Z,96.20
2022-10-22T00:53:02.470Z,101.00
2022-10-22T00:53:12.467Z,101.70
2022-10-22T00:53:22.471Z,97.10
2022-10-22T00:53:32.480Z,93.30
2022-10-22T00:53:42.472Z,90.60
2022-10-22T00:53:52.504Z,93.30
2022-10-22T00:54:02.477Z,91.60
2022-10-22T00:54:12.460Z,94.90
2022-10-22T00:54:22.478Z,92.60
2022-10-22T00:54:32.478Z,93.00
2022-10-22T00:54:42.470Z,91.00
2022-10-22T00:54:52.466Z,90.20
2022-10-22T00:55:02.535Z,89.10
2022-10-22T00:55:12.463Z,84.30
2022-10-22T00:55:22.450Z,83.10
2022-10-22T00:55:32.458Z,85.60
2022-10-22T00:55:42.463Z,91.00
2022-10-22T00:55:52.453Z,91.10
2022-10-22T00:56:02.550Z,90.50
2022-10-22T00:56:12.458Z,89.20
2022-10-22T00:56:22.489Z,93.40
2022-10-22T00:56:33.108Z,99.80
2022-10-22T00:56:42.500Z,100.60
2022-10-22T00:56:52.459Z,96.10
2022-10-22T00:57:02.445Z,91.70
2022-10-22T00:57:12.504Z,92.60
2022-10-22T00:57:22.456Z,96.10
2022-10-22T00:57:32.461Z,96.80
2022-10-22T00:57:42.466Z,96.20
2022-10-22T00:57:52.589Z,92.70
2022-10-22T00:58:02.461Z,89.50
2022-10-22T00:58:12.610Z,92.80
2022-10-22T00:58:22.465Z,91.80
2022-10-22T00:58:32.441Z,91.50
2022-10-22T00:58:42.436Z,88.50
2022-10-22T00:58:52.465Z,96.40
2022-10-22T00:59:02.547Z,97.00
2022-10-22T00:59:12.447Z,91.10
2022-10-22T00:59:22.436Z,84.60
2022-10-22T00:59:32.447Z,85.80
2022-10-22T00:59:43.088Z,89.90
2022-10-22T00:59:52.443Z,90.50
2022-10-22T01:00:02.451Z,88.50
2022-10-22T01:00:12.677Z,91.90
2022-10-22T01:00:22.477Z,92.40
2022-10-22T01:00:32.497Z,94.30
2022-10-22T01:00:42.504Z,93.50
2022-10-22T01:00:52.468Z,97.30
2022-10-22T01:01:02.479Z,96.60
2022-10-22T01:01:12.578Z,94.90
2022-10-22T01:01:22.507Z,93.90
2022-10-22T01:01:32.431Z,94.50
2022-10-22T01:01:42.425Z,96.20
2022-10-22T01:01:53.105Z,94.40
2022-10-22T01:02:02.429Z,97.10
2022-10-22T01:02:12.427Z,97.90
2022-10-22T01:02:22.428Z,95.90
2022-10-22T01:02:32.432Z,91.30
2022-10-22T01:02:42.937Z,91.30
2022-10-22T01:02:52.434Z,92.50
2022-10-22T01:03:02.437Z,91.40
2022-10-22T01:03:12.423Z,89.40
2022-10-22T01:03:22.432Z,91.20
2022-10-22T01:03:32.439Z,93.50
2022-10-22T01:03:42.424Z,97.30
2022-10-22T01:03:52.440Z,97.70
2022-10-22T01:04:02.434Z,101.30
2022-10-22T01:04:12.430Z,99.00
2022-10-22T01:04:22.498Z,97.70
2022-10-22T01:04:32.446Z,99.30
2022-10-22T01:04:42.419Z,96.80
2022-10-22T01:04:52.449Z,97.20
2022-10-22T01:05:02.411Z,95.60
2022-10-22T01:05:12.412Z,97.30
2022-10-22T01:05:22.410Z,99.90
2022-10-22T01:05:32.520Z,101.30
2022-10-22T01:05:42.432Z,99.40
2022-10-22T01:05:52.417Z,96.80
2022-10-22T01:06:02.459Z,95.50
2022-10-22T01:06:12.418Z,103.10
2022-10-22T01:06:22.832Z,100.00
2022-10-22T01:06:32.410Z,98.40
2022-10-22T01:06:42.484Z,94.50
2022-10-22T01:06:52.425Z,99.30
2022-10-22T01:07:02.415Z,97.40
2022-10-22T01:07:12.432Z,93.20
2022-10-22T01:07:22.420Z,95.40
2022-10-22T01:07:32.420Z,95.80
2022-10-22T01:07:42.398Z,94.20
2022-10-22T01:07:52.428Z,90.30
2022-10-22T01:08:02.479Z,90.40
2022-10-22T01:08:12.402Z,95.40
2022-10-22T01:08:23.153Z,94.80
2022-10-22T01:08:32.781Z,98.20
2022-10-22T01:08:42.581Z,99.90
2022-10-22T01:08:52.421Z,99.80
2022-10-22T01:09:02.554Z,95.70
2022-10-22T01:09:12.411Z,95.70
2022-10-22T01:09:22.406Z,100.10
2022-10-22T01:09:32.421Z,103.30
2022-10-22T01:09:42.417Z,100.40
2022-10-22T01:09:52.486Z,101.70
2022-10-22T01:10:02.415Z,104.80
2022-10-22T01:10:12.411Z,110.00
2022-10-22T01:10:22.400Z,106.90
2022-10-22T01:10:33.101Z,102.30
2022-10-22T01:10:42.384Z,98.90
2022-10-22T01:10:52.417Z,100.40
2022-10-22T01:11:02.388Z,99.40
2022-10-22T01:11:13.094Z,100.10
2022-10-22T01:11:22.395Z,98.10
2022-10-22T01:11:32.458Z,98.60
2022-10-22T01:11:42.385Z,101.90
2022-10-22T01:11:52.391Z,103.90
2022-10-22T01:12:02.395Z,102.10
2022-10-22T01:12:12.494Z,98.90
2022-10-22T01:12:22.386Z,97.30
2022-10-22T01:12:32.423Z,100.60
2022-10-22T01:12:43.455Z,98.60
2022-10-22T01:12:53.106Z,97.30
2022-10-22T01:13:02.490Z,95.90
2022-10-22T01:13:12.378Z,96.50
2022-10-22T01:13:22.415Z,99.70
2022-10-22T01:13:32.375Z,98.40
2022-10-22T01:13:42.397Z,99.80
2022-10-22T01:13:52.374Z,98.10
2022-10-22T01:14:02.373Z,102.50
2022-10-22T01:14:12.512Z,101.00
2022-10-22T01:14:22.492Z,99.60
2022-10-22T01:14:32.376Z,99.80
2022-10-22T01:14:43.157Z,97.80
2022-10-22T01:14:52.384Z,100.00
2022-10-22T01:15:02.583Z,98.10
2022-10-22T01:15:12.372Z,105.70
2022-10-22T01:15:22.373Z,102.40
2022-10-22T01:15:32.376Z,105.20
2022-10-22T01:15:42.466Z,95.10
2022-10-22T01:15:52.386Z,96.00
2022-10-22T01:16:02.374Z,94.70
2022-10-22T01:16:12.512Z,93.90
2022-10-22T01:16:22.382Z,98.30
2022-10-22T01:16:32.370Z,100.50
2022-10-22T01:16:42.427Z,108.30
2022-10-22T01:16:52.450Z,105.80
2022-10-22T01:17:02.367Z,101.60
2022-10-22T01:17:12.556Z,103.10
2022-10-22T01:17:22.409Z,105.00
2022-10-22T01:17:32.386Z,108.30
2022-10-22T01:17:43.505Z,101.10
2022-10-22T01:17:52.361Z,96.90
2022-10-22T01:18:02.364Z,99.10
2022-10-22T01:18:12.375Z,103.60
2022-10-22T01:18:22.365Z,108.60
2022-10-22T01:18:32.353Z,106.10
2022-10-22T01:18:42.366Z,106.30
2022-10-22T01:18:53.111Z,104.40
2022-10-22T01:19:02.371Z,103.10
2022-10-22T01:19:12.364Z,102.90
2022-10-22T01:19:22.346Z,103.90
2022-10-22T01:19:32.368Z,106.40
2022-10-22T01:19:42.369Z,106.30
2022-10-22T01:19:52.350Z,104.80
2022-10-22T01:20:02.351Z,101.90
2022-10-22T01:20:13.122Z,100.00
2022-10-22T01:20:22.369Z,100.40
2022-10-22T01:20:32.352Z,96.70
2022-10-22T01:20:42.343Z,94.80
2022-10-22T01:20:52.359Z,91.40
2022-10-22T01:21:02.395Z,95.50
2022-10-22T01:21:12.380Z,100.50
2022-10-22T01:21:22.338Z,103.50
2022-10-22T01:21:32.350Z,103.90
2022-10-22T01:21:42.356Z,100.60
2022-10-22T01:21:52.395Z,97.80
2022-10-22T01:22:02.353Z,95.40
2022-10-22T01:22:12.390Z,99.30
2022-10-22T01:22:25.158Z,106.10
2022-10-22T01:22:32.365Z,105.40
2022-10-22T01:22:42.336Z,102.80
2022-10-22T01:22:53.146Z,96.90
2022-10-22T01:23:02.382Z,98.70
2022-10-22T01:23:12.356Z,96.50
2022-10-22T01:23:22.338Z,97.30
2022-10-22T01:23:32.375Z,98.00
2022-10-22T01:23:42.343Z,105.50
2022-10-22T01:23:52.336Z,112.60
2022-10-22T01:24:02.343Z,113.30
2022-10-22T01:24:12.337Z,106.70
2022-10-22T01:24:22.355Z,103.60
2022-10-22T01:24:32.341Z,101.50
2022-10-22T01:24:42.341Z,103.90
2022-10-22T01:24:52.377Z,98.30
2022-10-22T01:25:03.106Z,98.40
2022-10-22T01:25:12.333Z,96.70
2022-10-22T01:25:22.343Z,99.00
2022-10-22T01:25:32.346Z,101.00
2022-10-22T01:25:42.335Z,102.30
2022-10-22T01:25:52.369Z,99.30
2022-10-22T01:26:02.347Z,98.20
2022-10-22T01:26:12.432Z,96.40
2022-10-22T01:26:32.335Z,95.50
2022-10-22T01:26:43.212Z,96.40
2022-10-22T01:26:52.318Z,101.00
2022-10-22T01:27:02.392Z,104.10
2022-10-22T01:27:12.385Z,104.60
2022-10-22T01:27:22.318Z,99.60
2022-10-22T01:27:32.428Z,101.80
2022-10-22T01:27:42.896Z,99.90
2022-10-22T01:27:52.319Z,98.30
2022-10-22T01:28:03.148Z,95.60
2022-10-22T01:28:12.328Z,96.90
2022-10-22T01:28:22.506Z,99.40
2022-10-22T01:28:32.333Z,106.00
2022-10-22T01:28:42.329Z,105.80
2022-10-22T01:28:52.309Z,106.90
2022-10-22T01:29:02.342Z,98.70
2022-10-22T01:29:12.430Z,97.00
2022-10-22T01:29:22.355Z,100.00
2022-10-22T01:29:32.312Z,99.50
2022-10-22T01:29:42.305Z,101.90
2022-10-22T01:29:52.316Z,99.00
2022-10-22T01:30:02.303Z,105.00
2022-10-22T01:30:12.342Z,105.10
2022-10-22T01:30:22.327Z,102.90
2022-10-22T01:30:32.306Z,105.40
2022-10-22T01:30:42.324Z,105.50
2022-10-22T01:30:52.325Z,108.80
2022-10-22T01:31:02.328Z,99.90
2022-10-22T01:31:13.113Z,98.10
2022-10-22T01:31:22.393Z,99.90
2022-10-22T01:31:32.309Z,101.70
2022-10-22T01:31:42.568Z,102.00
2022-10-22T01:31:52.305Z,98.20
2022-10-22T01:32:02.317Z,98.60
2022-10-22T01:32:12.395Z,101.00
2022-10-22T01:32:23.107Z,102.60
2022-10-22T01:32:32.317Z,110.60
2022-10-22T01:32:42.297Z,110.30
2022-10-22T01:32:52.310Z,110.20
2022-10-22T01:33:02.324Z,101.50
2022-10-22T01:33:12.286Z,105.70
2022-10-22T01:33:23.137Z,112.80
2022-10-22T01:33:32.427Z,113.20
2022-10-22T01:33:43.156Z,104.60
2022-10-22T01:33:52.476Z,96.90
2022-10-22T01:34:03.100Z,99.70
2022-10-22T01:34:12.290Z,102.20
2022-10-22T01:34:22.303Z,109.90
2022-10-22T01:34:32.426Z,109.00
2022-10-22T01:34:42.349Z,113.00
2022-10-22T01:34:52.310Z,105.30
2022-10-22T01:35:02.494Z,102.20
2022-10-22T01:35:12.291Z,101.00
2022-10-22T01:35:22.330Z,101.30
2022-10-22T01:35:42.293Z,107.10
2022-10-22T01:35:52.376Z,107.30
2022-10-22T01:36:02.347Z,106.60
2022-10-22T01:36:12.287Z,109.20
2022-10-22T01:36:22.411Z,114.10
2022-10-22T01:36:32.283Z,111.80
2022-10-22T01:36:42.292Z,106.60
2022-10-22T01:36:52.287Z,104.70
2022-10-22T01:37:02.281Z,107.90
2022-10-22T01:37:12.358Z,109.90
2022-10-22T01:37:22.338Z,106.40
2022-10-22T01:37:33.098Z,100.30
2022-10-22T01:37:42.571Z,102.90
2022-10-22T01:37:52.272Z,101.70
2022-10-22T01:38:02.353Z,103.20
2022-10-22T01:38:12.289Z,103.50
2022-10-22T01:38:22.331Z,106.30
2022-10-22T01:38:32.315Z,107.30
2022-10-22T01:38:42.293Z,107.40
2022-10-22T01:38:52.265Z,107.90
2022-10-22T01:39:03.108Z,105.00
2022-10-22T01:39:13.136Z,100.80
2022-10-22T01:39:22.270Z,94.90
2022-10-22T01:39:32.290Z,100.50
2022-10-22T01:39:42.355Z,96.90
2022-10-22T01:39:52.267Z,104.90
2022-10-22T01:40:02.293Z,104.20
2022-10-22T01:40:12.272Z,106.20
2022-10-22T01:40:22.353Z,102.10
2022-10-22T01:40:32.326Z,97.70
2022-10-22T01:40:42.259Z,98.40
2022-10-22T01:40:53.105Z,99.10
2022-10-22T01:41:02.275Z,101.70
2022-10-22T01:41:12.340Z,101.20
2022-10-22T01:41:22.266Z,102.60
2022-10-22T01:41:32.270Z,100.60
2022-10-22T01:41:42.281Z,104.10
2022-10-22T01:41:53.104Z,101.40
2022-10-22T01:42:02.304Z,100.00
2022-10-22T01:42:12.253Z,97.20
2022-10-22T01:42:22.276Z,97.80
2022-10-22T01:42:32.442Z,102.80
2022-10-22T01:42:42.277Z,101.20
2022-10-22T01:42:52.248Z,101.30
2022-10-22T01:43:02.254Z,97.00
2022-10-22T01:43:12.251Z,101.40
2022-10-22T01:43:22.253Z,104.20
2022-10-22T01:43:32.280Z,104.70
2022-10-22T01:43:42.359Z,103.70
2022-10-22T01:43:52.321Z,102.10
2022-10-22T01:44:02.249Z,106.00
2022-10-22T01:44:12.261Z,104.10
2022-10-22T01:44:22.302Z,100.60
2022-10-22T01:44:32.332Z,100.70
2022-10-22T01:44:42.286Z,99.80
2022-10-22T01:44:53.105Z,100.00
2022-10-22T01:45:02.331Z,99.80
2022-10-22T01:45:12.248Z,102.20
2022-10-22T01:45:22.255Z,104.60
2022-10-22T01:45:32.260Z,101.00
2022-10-22T01:45:42.270Z,102.30
2022-10-22T01:45:52.395Z,99.70
2022-10-22T01:46:02.245Z,100.50
2022-10-22T01:46:12.262Z,99.60
2022-10-22T01:46:22.393Z,105.00
2022-10-22T01:46:32.237Z,106.50
2022-10-22T01:46:42.282Z,106.60
2022-10-22T01:46:52.237Z,102.80
2022-10-22T01:47:02.273Z,101.40
2022-10-22T01:47:12.230Z,101.40
2022-10-22T01:47:22.251Z,100.90
2022-10-22T01:47:32.228Z,100.90
2022-10-22T01:47:42.701Z,99.40
2022-10-22T01:47:52.256Z,100.90
2022-10-22T01:48:03.107Z,101.60
2022-10-22T01:48:12.237Z,106.60
2022-10-22T01:48:22.262Z,110.50
2022-10-22T01:48:32.236Z,107.90
2022-10-22T01:48:42.241Z,104.20
2022-10-22T01:48:52.227Z,97.60
2022-10-22T01:49:02.239Z,103.10
2022-10-22T01:49:12.232Z,99.90
2022-10-22T01:49:22.250Z,101.40
2022-10-22T01:49:32.241Z,98.60
2022-10-22T01:49:57.145Z,102.80
2022-10-22T01:49:57.347Z,106.40
2022-10-22T01:50:07.462Z,106.20
2022-10-22T01:50:17.424Z,108.60
2022-10-22T01:50:27.338Z,108.40
2022-10-22T01:50:37.339Z,108.80
2022-10-22T01:50:47.358Z,101.40
2022-10-22T01:50:57.342Z,103.70
2022-10-22T01:51:07.377Z,101.40
2022-10-22T01:51:17.333Z,107.30
2022-10-22T01:51:27.355Z,104.00
2022-10-22T01:51:37.347Z,106.20
2022-10-22T01:51:47.354Z,102.90
2022-10-22T01:51:57.339Z,105.60
2022-10-22T01:52:07.369Z,100.70
2022-10-22T01:52:18.123Z,98.00
2022-10-22T01:52:27.342Z,93.30
2022-10-22T01:52:37.354Z,94.80
2022-10-22T01:52:47.403Z,99.10
2022-10-22T01:52:57.334Z,101.60
2022-10-22T01:53:07.373Z,101.50
2022-10-22T01:53:17.344Z,97.50
2022-10-22T01:53:27.337Z,103.40
2022-10-22T01:53:37.457Z,102.50
2022-10-22T01:53:47.363Z,105.30
2022-10-22T01:53:57.346Z,99.40
2022-10-22T01:54:07.335Z,100.80
2022-10-22T01:54:18.120Z,97.10
2022-10-22T01:54:27.537Z,96.30
2022-10-22T01:54:37.352Z,95.40
2022-10-22T01:54:47.329Z,96.80
2022-10-22T01:54:57.323Z,93.50
2022-10-22T01:55:07.370Z,95.60
2022-10-22T01:55:17.334Z,96.10
2022-10-22T01:55:28.137Z,100.70
2022-10-22T01:55:37.326Z,101.40
2022-10-22T01:55:47.332Z,100.90
2022-10-22T01:55:57.316Z,99.10
2022-10-22T01:56:07.345Z,99.70
2022-10-22T01:56:17.343Z,100.70
2022-10-22T01:56:28.121Z,100.60
2022-10-22T01:56:37.312Z,102.30
2022-10-22T01:56:47.332Z,103.30
2022-10-22T01:56:57.316Z,104.00
2022-10-22T01:57:07.359Z,102.00
2022-10-22T01:57:17.330Z,94.80
2022-10-22T01:57:28.125Z,94.70
2022-10-22T01:57:37.400Z,92.30
2022-10-22T01:57:47.319Z,93.70
2022-10-22T01:57:57.369Z,90.30
2022-10-22T01:58:07.384Z,86.50
2022-10-22T01:58:17.306Z,85.90
2022-10-22T01:58:27.312Z,85.40
2022-10-22T01:58:37.386Z,85.60
2022-10-22T01:58:47.336Z,87.30
2022-10-22T01:58:57.300Z,87.50
2022-10-22T01:59:07.315Z,87.90
2022-10-22T01:59:17.323Z,92.10
2022-10-22T01:59:27.315Z,91.00
2022-10-22T01:59:37.431Z,88.20
2022-10-22T01:59:47.303Z,86.20
2022-10-22T01:59:57.298Z,87.20
2022-10-22T02:00:07.303Z,96.70
2022-10-22T02:00:17.306Z,101.00
2022-10-22T02:00:27.402Z,98.20
2022-10-22T02:00:38.195Z,91.80
2022-10-22T02:00:47.337Z,84.10
2022-10-22T02:00:57.349Z,94.20
2022-10-22T02:01:07.324Z,94.70
2022-10-22T02:01:17.296Z,94.70
2022-10-22T02:01:27.507Z,88.50
2022-10-22T02:01:37.299Z,88.50
2022-10-22T02:01:47.297Z,89.90
2022-10-22T02:01:57.298Z,88.80
2022-10-22T02:02:07.301Z,92.50
2022-10-22T02:02:17.299Z,91.80
2022-10-22T02:02:27.303Z,93.90
2022-10-22T02:02:37.376Z,84.10
2022-10-22T02:02:57.314Z,78.00
2022-10-22T02:03:07.349Z,83.50
2022-10-22T02:03:19.908Z,81.50
2022-10-22T02:03:27.313Z,86.80
2022-10-22T02:03:37.283Z,86.50
2022-10-22T02:03:47.289Z,89.50
2022-10-22T02:03:57.310Z,83.80
2022-10-22T02:04:08.138Z,81.70
2022-10-22T02:04:17.282Z,83.90
2022-10-22T02:04:27.295Z,86.00
2022-10-22T02:04:38.114Z,84.20
2022-10-22T02:04:47.387Z,76.00
2022-10-22T02:04:57.293Z,77.80
2022-10-22T02:05:07.302Z,78.20
2022-10-22T02:05:17.388Z,87.60
2022-10-22T02:05:27.302Z,85.40
2022-10-22T02:05:37.295Z,87.30
2022-10-22T02:05:47.299Z,79.30
2022-10-22T02:05:57.281Z,83.60
2022-10-22T02:06:07.275Z,85.30
2022-10-22T02:06:17.307Z,91.60
2022-10-22T02:06:27.288Z,86.40
2022-10-22T02:06:37.279Z,83.60
2022-10-22T02:06:48.129Z,77.80
2022-10-22T02:06:57.393Z,77.40
2022-10-22T02:07:07.293Z,74.60
2022-10-22T02:07:17.281Z,75.40
2022-10-22T02:07:27.366Z,77.00
2022-10-22T02:07:37.325Z,84.60
2022-10-22T02:07:47.281Z,83.90
2022-10-22T02:07:57.272Z,84.60
2022-10-22T02:08:07.277Z,77.90
2022-10-22T02:08:18.139Z,79.30
2022-10-22T02:08:27.274Z,80.40
2022-10-22T02:08:37.300Z,84.00